createdAt,value
2019-04-06T00:00:06.114Z,26.10
2019-04-06T00:02:38.594Z,28.00
2019-04-06T00:05:08.435Z,29.77
2019-04-06T00:07:37.590Z,29.07
2019-04-06T00:10:07.984Z,25.90
2019-04-06T00:12:37.211Z,25.43
2019-04-06T00:15:07.836Z,28.53
2019-04-06T00:17:37.019Z,27.37
2019-04-06T00:20:06.644Z,26.20
2019-04-06T00:22:35.976Z,25.63
2019-04-06T00:25:06.846Z,24.77
2019-04-06T00:27:36.051Z,25.90
2019-04-06T00:30:08.499Z,26.30
2019-04-06T00:32:41.979Z,25.40
2019-04-06T00:35:11.282Z,24.70
2019-04-06T00:37:40.479Z,27.40
2019-04-06T00:40:09.908Z,25.70
2019-04-06T00:42:39.200Z,27.03
2019-04-06T00:45:09.538Z,25.53
2019-04-06T00:47:38.736Z,30.83
2019-04-06T00:50:08.037Z,28.57
2019-04-06T00:52:37.248Z,26.10
2019-04-06T00:55:06.734Z,28.47
2019-04-06T00:57:35.946Z,26.83
2019-04-06T01:00:08.194Z,30.00
2019-04-06T01:02:37.413Z,26.30
2019-04-06T01:05:07.203Z,26.77
2019-04-06T01:07:36.595Z,28.37
2019-04-06T01:10:06.271Z,34.17
2019-04-06T01:12:35.475Z,32.13
2019-04-06T01:15:06.438Z,33.40
2019-04-06T01:17:35.644Z,36.60
2019-04-06T01:20:06.015Z,30.60
2019-04-06T01:22:36.286Z,27.83
2019-04-06T01:25:07.230Z,29.90
2019-04-06T01:27:36.438Z,29.30
2019-04-06T01:30:07.702Z,26.10
2019-04-06T01:32:36.918Z,30.53
2019-04-06T01:35:06.267Z,35.93
2019-04-06T01:37:35.594Z,33.03
2019-04-06T01:40:06.435Z,30.60
2019-04-06T01:42:35.659Z,33.77
2019-04-06T01:45:06.600Z,31.73
2019-04-06T01:47:35.855Z,36.00
2019-04-06T01:50:06.083Z,32.67
2019-04-06T01:52:36.326Z,32.50
2019-04-06T01:55:06.287Z,28.67
2019-04-06T01:57:35.779Z,29.17
2019-04-06T02:00:09.574Z,36.37
2019-04-06T02:02:40.448Z,32.70
2019-04-06T02:05:10.005Z,34.07
2019-04-06T02:07:39.217Z,31.00
2019-04-06T02:10:08.589Z,28.00
2019-04-06T02:12:37.816Z,28.53
2019-04-06T02:15:07.114Z,33.50
2019-04-06T02:17:36.438Z,32.87
2019-04-06T02:20:06.466Z,48.57
2019-04-06T02:22:35.797Z,34.10
2019-04-06T02:25:07.083Z,33.07
2019-04-06T02:27:36.302Z,30.23
2019-04-06T02:30:22.467Z,28.57
2019-04-06T02:33:02.245Z,27.07
2019-04-06T02:35:33.154Z,27.97
2019-04-06T02:38:04.057Z,29.93
2019-04-06T02:40:34.958Z,37.60
2019-04-06T02:43:12.145Z,33.93
2019-04-06T02:45:41.410Z,33.60
2019-04-06T02:48:10.643Z,29.43
2019-04-06T02:50:39.950Z,31.10
2019-04-06T02:53:09.535Z,29.97
2019-04-06T02:55:38.766Z,29.53
2019-04-06T02:58:07.989Z,29.20
2019-04-06T03:00:37.199Z,34.40
2019-04-06T03:03:06.581Z,28.83
2019-04-06T03:05:35.888Z,30.40
2019-04-06T03:08:05.137Z,34.07
2019-04-06T03:10:34.457Z,30.33
2019-04-06T03:13:03.785Z,32.97
2019-04-06T03:15:34.787Z,31.90
2019-04-06T03:18:04.265Z,29.27
2019-04-06T03:20:33.490Z,31.90
2019-04-06T03:23:02.812Z,30.37
2019-04-06T03:25:32.100Z,31.07
2019-04-06T03:28:01.339Z,32.40
2019-04-06T03:30:30.681Z,34.20
2019-04-06T03:33:00.209Z,31.03
2019-04-06T03:35:29.750Z,31.60
2019-04-06T03:37:59.252Z,36.30
2019-04-06T03:40:29.691Z,35.77
2019-04-06T03:42:59.979Z,34.33
2019-04-06T03:45:29.386Z,35.00
2019-04-06T03:47:58.691Z,31.00
2019-04-06T03:50:28.185Z,35.23
2019-04-06T03:52:57.427Z,34.20
2019-04-06T03:55:26.630Z,29.40
2019-04-06T03:57:55.860Z,30.50
2019-04-06T04:00:25.066Z,30.30
2019-04-06T04:02:54.291Z,28.87
2019-04-06T04:05:23.510Z,36.00
2019-04-06T04:07:52.798Z,32.07
2019-04-06T04:10:34.238Z,33.30
2019-04-06T04:13:03.543Z,30.70
2019-04-06T04:15:32.765Z,31.53
2019-04-06T04:18:02.046Z,31.37
2019-04-06T04:20:31.340Z,29.13
2019-04-06T04:23:00.706Z,31.07
2019-04-06T04:25:30.185Z,29.07
2019-04-06T04:27:59.448Z,26.30
2019-04-06T04:30:33.365Z,29.73
2019-04-06T04:32:59.779Z,33.13
2019-04-06T04:35:29.445Z,31.60
2019-04-06T04:37:59.164Z,32.43
2019-04-06T04:40:28.354Z,30.87
2019-04-06T04:42:57.778Z,30.03
2019-04-06T04:45:27.062Z,29.63
2019-04-06T04:47:56.650Z,34.83
2019-04-06T04:50:26.010Z,36.77
2019-04-06T04:52:55.355Z,30.93
2019-04-06T04:55:24.560Z,29.03
2019-04-06T04:57:53.787Z,29.37
2019-04-06T05:00:23.169Z,35.00
2019-04-06T05:02:52.498Z,36.27
2019-04-06T05:05:21.700Z,35.50
2019-04-06T05:07:50.927Z,35.70
2019-04-06T05:10:20.177Z,42.90
2019-04-06T05:12:49.444Z,41.60
2019-04-06T05:15:30.695Z,45.97
2019-04-06T05:17:59.926Z,38.50
2019-04-06T05:20:29.150Z,45.67
2019-04-06T05:22:58.428Z,39.73
2019-04-06T05:25:27.640Z,36.50
2019-04-06T05:27:56.859Z,35.43
2019-04-06T05:30:26.090Z,32.93
2019-04-06T05:32:55.314Z,34.63
2019-04-06T05:35:24.518Z,39.50
2019-04-06T05:37:53.887Z,32.87
2019-04-06T05:40:23.185Z,35.97
2019-04-06T05:42:52.516Z,33.60
2019-04-06T05:45:21.721Z,32.53
2019-04-06T05:47:50.939Z,29.30
2019-04-06T05:50:20.138Z,32.97
2019-04-06T05:52:49.374Z,29.07
2019-04-06T05:55:18.600Z,31.70
2019-04-06T05:57:47.799Z,34.03
2019-04-06T06:00:17.195Z,33.90
2019-04-06T06:02:46.402Z,32.93
2019-04-06T06:05:15.619Z,31.30
2019-04-06T06:07:44.846Z,31.90
2019-04-06T06:10:14.112Z,34.90
2019-04-06T06:12:43.340Z,31.00
2019-04-06T06:15:12.713Z,33.70
2019-04-06T06:17:41.947Z,31.03
2019-04-06T06:20:11.549Z,32.40
2019-04-06T06:22:41.367Z,35.57
2019-04-06T06:25:10.869Z,32.40
2019-04-06T06:27:40.100Z,30.83
2019-04-06T06:30:10.076Z,33.67
2019-04-06T06:32:39.451Z,34.27
2019-04-06T06:35:09.095Z,35.77
2019-04-06T06:37:39.391Z,36.57
2019-04-06T06:40:08.872Z,31.20
2019-04-06T06:42:38.421Z,33.60
2019-04-06T06:45:07.903Z,32.87
2019-04-06T06:47:37.131Z,36.53
2019-04-06T06:50:07.375Z,36.20
2019-04-06T06:52:36.632Z,34.47
2019-04-06T06:55:07.639Z,31.90
2019-04-06T06:57:36.867Z,37.40
2019-04-06T07:00:07.107Z,33.37
2019-04-06T07:02:36.341Z,36.07
2019-04-06T07:05:06.707Z,40.47
2019-04-06T07:07:36.883Z,38.50
2019-04-06T07:10:07.122Z,36.43
2019-04-06T07:12:36.349Z,34.60
2019-04-06T07:15:09.401Z,36.23
2019-04-06T07:17:38.628Z,32.63
2019-04-06T07:20:08.294Z,36.30
2019-04-06T07:22:37.566Z,31.67
2019-04-06T07:25:07.155Z,33.33
2019-04-06T07:27:36.397Z,36.20
2019-04-06T07:30:09.262Z,33.97
2019-04-06T07:32:38.499Z,32.43
2019-04-06T07:35:08.193Z,30.13
2019-04-06T07:37:37.767Z,28.87
2019-04-06T07:40:11.379Z,28.90
2019-04-06T07:42:40.636Z,30.37
2019-04-06T07:45:10.521Z,29.43
2019-04-06T07:47:39.747Z,28.57
2019-04-06T07:50:09.295Z,30.23
2019-04-06T07:52:38.799Z,29.70
2019-04-06T07:55:08.073Z,28.73
2019-04-06T07:57:37.419Z,27.40
2019-04-06T08:00:08.003Z,26.87
2019-04-06T08:02:37.287Z,28.20
2019-04-06T08:05:06.857Z,26.93
2019-04-06T08:07:36.062Z,28.60
2019-04-06T08:10:06.949Z,25.30
2019-04-06T08:12:36.150Z,28.00
2019-04-06T08:15:07.607Z,27.93
2019-04-06T08:17:36.836Z,29.63
2019-04-06T08:20:07.583Z,25.90
2019-04-06T08:22:36.818Z,24.23
2019-04-06T08:25:06.565Z,26.00
2019-04-06T08:27:36.771Z,26.77
2019-04-06T08:30:10.754Z,25.47
2019-04-06T08:32:39.987Z,25.37
2019-04-06T08:35:10.333Z,23.93
2019-04-06T08:37:39.571Z,24.43
2019-04-06T08:40:09.320Z,25.90
2019-04-06T08:42:38.554Z,24.53
2019-04-06T08:45:08.062Z,25.67
2019-04-06T08:47:37.273Z,24.70
2019-04-06T08:50:07.443Z,24.43
2019-04-06T08:52:36.740Z,22.93
2019-04-06T08:55:07.188Z,23.73
2019-04-06T08:57:37.595Z,25.30
2019-04-06T09:00:07.342Z,25.30
2019-04-06T09:02:36.571Z,23.23
2019-04-06T09:05:07.034Z,23.83
2019-04-06T09:07:36.271Z,24.83
2019-04-06T09:10:06.815Z,24.87
2019-04-06T09:12:36.320Z,24.83
2019-04-06T09:15:08.270Z,23.43
2019-04-06T09:17:37.500Z,24.63
2019-04-06T09:20:09.853Z,26.80
2019-04-06T09:22:39.163Z,24.82
2019-04-06T09:25:08.555Z,25.70
2019-04-06T09:27:37.771Z,26.40
2019-04-06T09:30:07.579Z,24.63
2019-04-06T09:32:36.934Z,26.93
2019-04-06T09:35:06.444Z,29.10
2019-04-06T09:37:35.666Z,26.57
2019-04-06T09:40:07.167Z,25.87
2019-04-06T09:42:36.480Z,24.43
2019-04-06T09:45:25.070Z,26.87
2019-04-06T09:47:55.969Z,24.80
2019-04-06T09:50:26.869Z,25.00
2019-04-06T09:52:57.742Z,28.27
2019-04-06T09:55:28.599Z,24.60
2019-04-06T09:58:17.802Z,25.70
2019-04-06T10:00:57.700Z,24.20
2019-04-06T10:03:45.202Z,26.73
2019-04-06T10:06:22.104Z,25.30
2019-04-06T10:08:56.596Z,25.90
2019-04-06T10:11:44.126Z,25.23
2019-04-06T10:14:31.642Z,24.57
2019-04-06T10:17:08.624Z,26.90
2019-04-06T10:19:39.716Z,26.83
2019-04-06T10:22:10.792Z,26.70
2019-04-06T10:24:56.763Z,29.00
2019-04-06T10:27:27.622Z,28.93
2019-04-06T10:29:58.478Z,26.17
2019-04-06T10:32:44.622Z,26.00
2019-04-06T10:35:21.049Z,26.47
2019-04-06T10:37:54.586Z,27.13
2019-04-06T10:40:25.534Z,26.60
2019-04-06T10:42:57.563Z,27.07
2019-04-06T10:45:34.532Z,27.00
2019-04-06T10:48:18.094Z,25.67
2019-04-06T10:51:04.267Z,24.67
2019-04-06T10:53:50.127Z,25.53
2019-04-06T10:56:33.252Z,26.37
2019-04-06T10:59:04.195Z,26.30
2019-04-06T11:01:51.782Z,27.23
2019-04-06T11:04:25.663Z,27.60
2019-04-06T11:06:59.646Z,28.23
2019-04-06T11:09:30.523Z,27.83
2019-04-06T11:12:17.648Z,29.57
2019-04-06T11:15:00.574Z,27.53
2019-04-06T11:17:34.648Z,28.93
2019-04-06T11:20:20.231Z,26.93
2019-04-06T11:22:54.227Z,25.37
2019-04-06T11:25:25.078Z,27.23
2019-04-06T11:27:55.967Z,26.17
2019-04-06T11:30:38.847Z,27.03
2019-04-06T11:33:25.947Z,25.20
2019-04-06T11:35:59.773Z,25.43
2019-04-06T11:38:46.118Z,24.77
2019-04-06T11:41:16.965Z,24.60
2019-04-06T11:44:00.059Z,26.13
2019-04-06T11:46:45.957Z,25.50
2019-04-06T11:49:19.754Z,24.30
2019-04-06T11:51:56.584Z,23.10
2019-04-06T11:54:44.035Z,26.23
2019-04-06T11:57:20.710Z,25.00
2019-04-06T12:00:00.711Z,25.53
2019-04-06T12:02:34.507Z,26.47
2019-04-06T12:05:08.256Z,24.77
2019-04-06T12:07:47.901Z,24.50
2019-04-06T12:10:24.767Z,23.47
2019-04-06T12:12:58.563Z,26.80
2019-04-06T12:15:41.188Z,26.53
2019-04-06T12:18:12.058Z,26.73
2019-04-06T12:20:59.536Z,25.00
2019-04-06T12:23:36.387Z,25.20
2019-04-06T12:26:23.868Z,24.53
2019-04-06T12:29:04.162Z,26.20
2019-04-06T12:31:51.567Z,25.80
2019-04-06T12:34:38.753Z,27.07
2019-04-06T12:37:15.940Z,25.37
2019-04-06T12:39:59.042Z,26.53
2019-04-06T12:42:46.624Z,27.17
2019-04-06T12:45:33.746Z,26.40
2019-04-06T12:48:07.603Z,25.77
2019-04-06T12:50:55.105Z,25.40
2019-04-06T12:53:42.928Z,25.20
2019-04-06T12:56:30.417Z,24.50
2019-04-06T12:59:19.703Z,24.40
2019-04-06T13:02:02.715Z,24.77
2019-04-06T13:04:36.249Z,22.53
2019-04-06T13:07:23.944Z,19.57
2019-04-06T13:09:54.795Z,18.40
2019-04-06T13:12:26.638Z,18.90
2019-04-06T13:14:57.915Z,18.03
2019-04-06T13:17:28.939Z,18.07
2019-04-06T13:20:15.144Z,17.90
2019-04-06T13:22:50.140Z,15.97
2019-04-06T13:25:25.037Z,16.47
2019-04-06T13:28:01.933Z,15.40
2019-04-06T13:30:45.007Z,15.30
2019-04-06T13:33:15.877Z,15.67
2019-04-06T13:35:49.955Z,16.30
2019-04-06T13:38:26.528Z,14.87
2019-04-06T13:41:00.167Z,16.10
2019-04-06T13:43:47.297Z,15.57
2019-04-06T13:46:23.933Z,14.83
2019-04-06T13:49:00.814Z,16.30
2019-04-06T13:51:40.899Z,15.83
2019-04-06T13:54:15.515Z,14.30
2019-04-06T13:56:55.163Z,13.83
2019-04-06T13:59:26.078Z,15.40
2019-04-06T14:02:11.911Z,14.80
2019-04-06T14:04:51.935Z,14.97
2019-04-06T14:07:23.064Z,14.80
2019-04-06T14:10:11.093Z,15.03
2019-04-06T14:12:53.978Z,16.27
2019-04-06T14:15:41.355Z,15.03
2019-04-06T14:18:21.159Z,17.00
2019-04-06T14:20:54.790Z,15.30
2019-04-06T14:23:28.659Z,16.50
2019-04-06T14:26:16.071Z,15.37
2019-04-06T14:28:50.010Z,15.50
2019-04-06T14:31:33.136Z,17.23
2019-04-06T14:34:20.638Z,16.97
2019-04-06T14:36:57.263Z,17.70
2019-04-06T14:39:28.150Z,16.83
2019-04-06T14:42:05.186Z,17.43
2019-04-06T14:44:38.755Z,17.60
2019-04-06T14:47:12.150Z,18.67
2019-04-06T14:49:55.452Z,16.57
2019-04-06T14:52:29.463Z,17.30
2019-04-06T14:55:06.437Z,16.73
2019-04-06T14:57:37.356Z,17.40
2019-04-06T15:00:10.042Z,16.80
2019-04-06T15:02:56.053Z,16.33
2019-04-06T15:05:33.208Z,18.00
2019-04-06T15:08:08.306Z,16.60
2019-04-06T15:10:48.413Z,15.83
2019-04-06T15:13:19.290Z,17.47
2019-04-06T15:15:59.685Z,16.93
2019-04-06T15:18:47.228Z,17.90
2019-04-06T15:21:27.729Z,15.73
2019-04-06T15:23:58.618Z,18.17
2019-04-06T15:26:36.253Z,16.80
2019-04-06T15:29:13.091Z,18.13
2019-04-06T15:31:59.065Z,16.73
2019-04-06T15:34:32.741Z,17.67
2019-04-06T15:37:19.977Z,16.60
2019-04-06T15:39:50.822Z,20.47
2019-04-06T15:42:33.475Z,19.30
2019-04-06T15:45:20.702Z,17.87
2019-04-06T15:48:00.547Z,18.50
2019-04-06T15:50:31.396Z,18.83
2019-04-06T15:53:02.420Z,20.53
2019-04-06T15:55:42.146Z,20.50
2019-04-06T15:58:29.362Z,18.30
2019-04-06T16:01:09.682Z,17.20
2019-04-06T16:03:40.555Z,18.20
2019-04-06T16:06:20.206Z,18.70
2019-04-06T16:08:51.087Z,17.77
2019-04-06T16:11:22.027Z,17.27
2019-04-06T16:14:11.332Z,15.50
2019-04-06T16:16:45.143Z,15.37
2019-04-06T16:19:16.060Z,14.10
2019-04-06T16:21:49.960Z,14.07
2019-04-06T16:24:23.948Z,12.87
2019-04-06T16:26:57.578Z,15.57
2019-04-06T16:29:31.089Z,17.70
2019-04-06T16:32:14.007Z,15.50
2019-04-06T16:34:54.103Z,16.30
2019-04-06T16:37:25.426Z,16.17
2019-04-06T16:40:08.279Z,15.50
2019-04-06T16:42:57.379Z,15.73
2019-04-06T16:45:43.444Z,16.20
2019-04-06T16:48:20.194Z,14.20
2019-04-06T16:50:59.807Z,15.33
2019-04-06T16:53:30.978Z,14.53
2019-04-06T16:56:10.919Z,15.67
2019-04-06T16:58:45.845Z,16.17
2019-04-06T17:01:22.939Z,14.70
2019-04-06T17:04:08.888Z,15.10
2019-04-06T17:06:39.731Z,14.50
2019-04-06T17:09:19.450Z,13.80
2019-04-06T17:12:06.504Z,13.93
2019-04-06T17:14:53.894Z,12.93
2019-04-06T17:17:31.403Z,12.57
2019-04-06T17:20:18.615Z,13.70
2019-04-06T17:22:55.747Z,13.20
2019-04-06T17:25:29.292Z,12.27
2019-04-06T17:28:00.540Z,14.33
2019-04-06T17:30:40.851Z,14.13
2019-04-06T17:33:14.943Z,15.83
2019-04-06T17:35:45.810Z,14.77
2019-04-06T17:38:16.921Z,14.47
2019-04-06T17:40:53.823Z,15.37
2019-04-06T17:43:33.786Z,14.60
2019-04-06T17:46:22.762Z,15.50
2019-04-06T17:48:53.626Z,14.30
2019-04-06T17:51:30.178Z,15.13
2019-04-06T17:54:17.250Z,14.47
2019-04-06T17:56:50.971Z,14.50
2019-04-06T17:59:24.816Z,14.63
2019-04-06T18:02:04.843Z,14.10
2019-04-06T18:04:35.765Z,15.00
2019-04-06T18:07:12.799Z,15.30
2019-04-06T18:10:00.139Z,13.83
2019-04-06T18:12:31.023Z,13.67
2019-04-06T18:15:00.808Z,15.97
2019-04-06T18:17:30.288Z,15.20
2019-04-06T18:19:59.554Z,15.47
2019-04-06T18:22:28.853Z,15.57
2019-04-06T18:24:58.088Z,15.30
2019-04-06T18:27:27.461Z,16.40
2019-04-06T18:29:56.745Z,15.43
2019-04-06T18:32:27.698Z,14.70
2019-04-06T18:34:56.984Z,15.40
2019-04-06T18:37:28.928Z,15.17
2019-04-06T18:39:59.813Z,13.08
2019-04-06T18:42:29.045Z,14.50
2019-04-06T18:44:58.730Z,15.50
2019-04-06T18:47:27.972Z,15.57
2019-04-06T18:49:57.316Z,16.13
2019-04-06T18:52:27.240Z,15.83
2019-04-06T18:54:56.542Z,14.00
2019-04-06T18:57:25.758Z,17.40
2019-04-06T18:59:55.293Z,17.27
2019-04-06T19:02:24.671Z,18.03
2019-04-06T19:04:54.285Z,17.00
2019-04-06T19:07:23.522Z,17.10
2019-04-06T19:09:52.767Z,15.60
2019-04-06T19:12:21.993Z,16.47
2019-04-06T19:14:51.293Z,16.63
2019-04-06T19:17:20.504Z,17.47
2019-04-06T19:19:49.997Z,15.17
2019-04-06T19:22:19.391Z,15.47
2019-04-06T19:24:48.761Z,15.73
2019-04-06T19:27:18.273Z,16.30
2019-04-06T19:29:47.558Z,16.13
2019-04-06T19:32:17.086Z,14.93
2019-04-06T19:34:46.368Z,16.53
2019-04-06T19:37:16.032Z,16.90
2019-04-06T19:39:45.408Z,17.00
2019-04-06T19:42:14.634Z,16.27
2019-04-06T19:44:43.849Z,16.73
2019-04-06T19:47:13.083Z,29.57
2019-04-06T19:49:42.292Z,15.57
2019-04-06T19:52:11.788Z,17.23
2019-04-06T19:54:41.529Z,16.97
2019-04-06T19:57:10.884Z,15.70
2019-04-06T19:59:40.248Z,15.70
2019-04-06T20:02:09.461Z,16.13
2019-04-06T20:04:38.707Z,16.67
2019-04-06T20:07:09.666Z,15.03
2019-04-06T20:09:38.905Z,16.03
2019-04-06T20:12:08.146Z,16.17
2019-04-06T20:14:38.416Z,15.17
2019-04-06T20:17:07.694Z,16.97
2019-04-06T20:19:37.331Z,16.53
2019-04-06T20:22:07.637Z,15.90
2019-04-06T20:24:37.342Z,17.07
2019-04-06T20:27:07.133Z,15.80
2019-04-06T20:29:36.759Z,16.93
2019-04-06T20:32:05.986Z,17.27
2019-04-06T20:34:35.511Z,17.00
2019-04-06T20:37:05.311Z,16.60
2019-04-06T20:39:34.534Z,16.73
2019-04-06T20:42:03.995Z,17.93
2019-04-06T20:44:33.315Z,18.07
2019-04-06T20:47:02.573Z,18.47
2019-04-06T20:49:32.009Z,16.93
2019-04-06T20:52:01.856Z,17.70
2019-04-06T20:54:31.178Z,18.40
2019-04-06T20:57:00.497Z,16.03
2019-04-06T20:59:29.802Z,17.07
2019-04-06T21:01:59.037Z,15.93
2019-04-06T21:04:28.244Z,16.67
2019-04-06T21:06:57.488Z,15.87
2019-04-06T21:09:26.852Z,16.20
2019-04-06T21:11:56.108Z,15.03
2019-04-06T21:14:25.315Z,17.80
2019-04-06T21:16:54.616Z,16.47
2019-04-06T21:19:23.944Z,17.23
2019-04-06T21:21:53.608Z,16.73
2019-04-06T21:24:23.442Z,18.23
2019-04-06T21:26:53.205Z,18.10
2019-04-06T21:29:23.335Z,17.47
2019-04-06T21:31:53.754Z,18.23
2019-04-06T21:34:22.983Z,16.70
2019-04-06T21:36:52.751Z,17.80
2019-04-06T21:39:22.388Z,16.80
2019-04-06T21:41:51.706Z,17.77
2019-04-06T21:44:20.944Z,16.53
2019-04-06T21:46:50.166Z,17.10
2019-04-06T21:49:19.786Z,17.33
2019-04-06T21:51:49.188Z,17.30
2019-04-06T21:54:18.388Z,17.07
2019-04-06T21:56:47.880Z,18.00
2019-04-06T21:59:18.119Z,19.43
2019-04-06T22:01:47.744Z,18.73
2019-04-06T22:04:23.589Z,18.40
2019-04-06T22:06:47.971Z,17.50
2019-04-06T22:09:17.567Z,18.23
2019-04-06T22:11:46.912Z,17.50
2019-04-06T22:14:16.139Z,18.63
2019-04-06T22:16:45.810Z,19.07
2019-04-06T22:19:15.597Z,18.80
2019-04-06T22:21:46.311Z,20.57
2019-04-06T22:24:15.871Z,19.53
2019-04-06T22:26:45.188Z,20.27
2019-04-06T22:29:14.505Z,20.47
2019-04-06T22:31:43.833Z,20.27
2019-04-06T22:34:13.527Z,19.30
2019-04-06T22:36:42.807Z,18.30
2019-04-06T22:39:12.264Z,20.73
2019-04-06T22:41:42.050Z,21.20
2019-04-06T22:44:11.407Z,22.40
2019-04-06T22:46:40.772Z,20.27
2019-04-06T22:49:10.143Z,21.67
2019-04-06T22:51:39.359Z,19.37
2019-04-06T22:54:08.583Z,21.93
2019-04-06T22:56:37.926Z,19.97
2019-04-06T22:59:07.605Z,19.90
2019-04-06T23:01:38.952Z,19.80
2019-04-06T23:04:09.916Z,21.90
2019-04-06T23:06:59.107Z,19.40
2019-04-06T23:09:29.468Z,20.00
2019-04-06T23:11:58.703Z,20.50
2019-04-06T23:14:28.415Z,19.50
2019-04-06T23:16:57.787Z,21.33
2019-04-06T23:19:29.388Z,20.17
2019-04-06T23:21:58.789Z,21.10
2019-04-06T23:24:27.999Z,20.20
2019-04-06T23:26:57.796Z,21.93
2019-04-06T23:29:27.121Z,20.93
2019-04-06T23:31:56.351Z,21.90
2019-04-06T23:34:25.881Z,20.60
2019-04-06T23:36:55.777Z,22.43
2019-04-06T23:39:25.254Z,20.73
2019-04-06T23:41:55.064Z,21.43
2019-04-06T23:44:24.930Z,20.80
2019-04-06T23:46:54.338Z,20.60
2019-04-06T23:49:23.775Z,20.50
2019-04-06T23:51:53.316Z,21.27
2019-04-06T23:54:23.033Z,19.80
2019-04-06T23:56:52.986Z,20.17
2019-04-06T23:59:22.332Z,20.63
